sensor_id;sensor_type;location;lat;lon;timestamp;P1;durP1;ratioP1;P2;durP2;ratioP2
25069;SDS011;13064;48.162;11.536;2023-05-10T00:01:33;1.23;;;1.08;;
25069;SDS011;13064;48.162;11.536;2023-05-10T00:04:01;1.63;;;1.00;;
25069;SDS011;13064;48.162;11.536;2023-05-10T00:06:29;2.22;;;1.20;;
25069;SDS011;13064;48.162;11.536;2023-05-10T00:08:58;1.08;;;0.93;;
25069;SDS011;13064;48.162;11.536;2023-05-10T00:11:25;1.65;;;1.17;;
25069;SDS011;13064;48.162;11.536;2023-05-10T00:13:53;1.42;;;1.33;;
25069;SDS011;13064;48.162;11.536;2023-05-10T00:16:20;1.00;;;1.00;;
25069;SDS011;13064;48.162;11.536;2023-05-10T00:18:48;1.13;;;1.00;;
25069;SDS011;13064;48.162;11.536;2023-05-10T00:21:16;1.77;;;1.02;;
25069;SDS011;13064;48.162;11.536;2023-05-10T00:23:43;1.58;;;1.10;;
25069;SDS011;13064;48.162;11.536;2023-05-10T00:26:11;0.90;;;0.90;;
25069;SDS011;13064;48.162;11.536;2023-05-10T00:28:40;1.27;;;0.95;;
25069;SDS011;13064;48.162;11.536;2023-05-10T00:31:08;1.00;;;0.90;;
25069;SDS011;13064;48.162;11.536;2023-05-10T00:33:36;2.45;;;0.90;;
25069;SDS011;13064;48.162;11.536;2023-05-10T00:36:03;1.52;;;1.10;;
25069;SDS011;13064;48.162;11.536;2023-05-10T00:38:34;1.13;;;1.00;;
25069;SDS011;13064;48.162;11.536;2023-05-10T00:41:02;1.00;;;0.90;;
25069;SDS011;13064;48.162;11.536;2023-05-10T00:43:32;0.77;;;0.75;;
25069;SDS011;13064;48.162;11.536;2023-05-10T00:46:00;1.13;;;0.85;;
25069;SDS011;13064;48.162;11.536;2023-05-10T00:48:28;0.75;;;0.70;;
25069;SDS011;13064;48.162;11.536;2023-05-10T00:50:56;2.03;;;0.90;;
25069;SDS011;13064;48.162;11.536;2023-05-10T00:53:24;0.95;;;0.93;;
25069;SDS011;13064;48.162;11.536;2023-05-10T00:55:52;1.42;;;0.70;;
25069;SDS011;13064;48.162;11.536;2023-05-10T00:58:20;0.85;;;0.85;;
25069;SDS011;13064;48.162;11.536;2023-05-10T01:00:47;0.55;;;0.55;;
25069;SDS011;13064;48.162;11.536;2023-05-10T01:03:15;0.90;;;0.60;;
25069;SDS011;13064;48.162;11.536;2023-05-10T01:05:43;3.00;;;0.98;;
25069;SDS011;13064;48.162;11.536;2023-05-10T01:08:11;0.90;;;0.80;;
25069;SDS011;13064;48.162;11.536;2023-05-10T01:10:39;1.42;;;0.70;;
25069;SDS011;13064;48.162;11.536;2023-05-10T01:13:07;0.50;;;0.50;;
25069;SDS011;13064;48.162;11.536;2023-05-10T01:15:34;0.77;;;0.70;;
25069;SDS011;13064;48.162;11.536;2023-05-10T01:18:03;0.80;;;0.80;;
25069;SDS011;13064;48.162;11.536;2023-05-10T01:20:32;0.70;;;0.65;;
25069;SDS011;13064;48.162;11.536;2023-05-10T01:26:13;2.28;;;0.82;;
25069;SDS011;13064;48.162;11.536;2023-05-10T01:29:30;0.60;;;0.60;;
25069;SDS011;13064;48.162;11.536;2023-05-10T01:31:36;2.78;;;0.63;;
25069;SDS011;13064;48.162;11.536;2023-05-10T01:34:16;0.50;;;0.50;;
25069;SDS011;13064;48.162;11.536;2023-05-10T01:39:24;0.85;;;0.70;;
25069;SDS011;13064;48.162;11.536;2023-05-10T01:41:54;1.45;;;0.70;;
25069;SDS011;13064;48.162;11.536;2023-05-10T01:44:32;0.40;;;0.40;;
25069;SDS011;13064;48.162;11.536;2023-05-10T01:47:07;0.65;;;0.65;;
25069;SDS011;13064;48.162;11.536;2023-05-10T01:49:39;1.55;;;0.70;;
25069;SDS011;13064;48.162;11.536;2023-05-10T01:52:09;0.40;;;0.40;;
25069;SDS011;13064;48.162;11.536;2023-05-10T01:54:38;0.40;;;0.40;;
25069;SDS011;13064;48.162;11.536;2023-05-10T01:57:08;2.80;;;0.80;;
25069;SDS011;13064;48.162;11.536;2023-05-10T01:59:36;2.05;;;0.60;;
25069;SDS011;13064;48.162;11.536;2023-05-10T02:02:07;0.83;;;0.50;;
25069;SDS011;13064;48.162;11.536;2023-05-10T02:04:38;2.20;;;0.80;;
25069;SDS011;13064;48.162;11.536;2023-05-10T02:07:06;1.02;;;0.60;;
25069;SDS011;13064;48.162;11.536;2023-05-10T02:09:35;1.70;;;0.60;;
25069;SDS011;13064;48.162;11.536;2023-05-10T02:12:04;0.90;;;0.65;;
25069;SDS011;13064;48.162;11.536;2023-05-10T02:14:34;0.93;;;0.70;;
25069;SDS011;13064;48.162;11.536;2023-05-10T02:17:02;1.27;;;0.57;;
25069;SDS011;13064;48.162;11.536;2023-05-10T02:19:32;1.73;;;1.05;;
25069;SDS011;13064;48.162;11.536;2023-05-10T02:21:59;1.65;;;0.65;;
25069;SDS011;13064;48.162;11.536;2023-05-10T02:24:28;2.08;;;0.60;;
25069;SDS011;13064;48.162;11.536;2023-05-10T02:26:56;1.17;;;0.40;;
25069;SDS011;13064;48.162;11.536;2023-05-10T02:29:24;1.48;;;0.60;;
25069;SDS011;13064;48.162;11.536;2023-05-10T02:31:54;0.68;;;0.43;;
25069;SDS011;13064;48.162;11.536;2023-05-10T02:34:23;0.50;;;0.50;;
25069;SDS011;13064;48.162;11.536;2023-05-10T02:36:53;0.43;;;0.32;;
25069;SDS011;13064;48.162;11.536;2023-05-10T02:39:21;0.90;;;0.55;;
25069;SDS011;13064;48.162;11.536;2023-05-10T02:41:48;0.40;;;0.40;;
25069;SDS011;13064;48.162;11.536;2023-05-10T02:44:17;0.50;;;0.50;;
25069;SDS011;13064;48.162;11.536;2023-05-10T02:46:46;0.30;;;0.30;;
25069;SDS011;13064;48.162;11.536;2023-05-10T02:49:14;0.75;;;0.43;;
25069;SDS011;13064;48.162;11.536;2023-05-10T02:51:44;0.85;;;0.60;;
25069;SDS011;13064;48.162;11.536;2023-05-10T02:56:42;0.45;;;0.45;;
25069;SDS011;13064;48.162;11.536;2023-05-10T02:59:14;0.90;;;0.50;;
25069;SDS011;13064;48.162;11.536;2023-05-10T03:01:42;0.50;;;0.50;;
25069;SDS011;13064;48.162;11.536;2023-05-10T03:04:09;0.50;;;0.50;;
25069;SDS011;13064;48.162;11.536;2023-05-10T03:06:37;0.50;;;0.50;;
25069;SDS011;13064;48.162;11.536;2023-05-10T03:09:05;3.03;;;0.50;;
25069;SDS011;13064;48.162;11.536;2023-05-10T03:16:56;0.50;;;0.40;;
25069;SDS011;13064;48.162;11.536;2023-05-10T03:19:43;2.05;;;0.60;;
25069;SDS011;13064;48.162;11.536;2023-05-10T03:22:11;1.75;;;0.45;;
25069;SDS011;13064;48.162;11.536;2023-05-10T03:24:40;1.05;;;0.52;;
25069;SDS011;13064;48.162;11.536;2023-05-10T03:27:09;0.22;;;0.22;;
25069;SDS011;13064;48.162;11.536;2023-05-10T03:29:37;1.52;;;0.40;;
25069;SDS011;13064;48.162;11.536;2023-05-10T03:32:06;0.95;;;0.50;;
25069;SDS011;13064;48.162;11.536;2023-05-10T03:34:33;0.57;;;0.40;;
25069;SDS011;13064;48.162;11.536;2023-05-10T03:37:02;0.40;;;0.40;;
25069;SDS011;13064;48.162;11.536;2023-05-10T03:39:31;0.70;;;0.50;;
25069;SDS011;13064;48.162;11.536;2023-05-10T03:42:00;1.70;;;0.40;;
25069;SDS011;13064;48.162;11.536;2023-05-10T03:44:29;2.20;;;0.60;;
25069;SDS011;13064;48.162;11.536;2023-05-10T03:46:56;0.65;;;0.50;;
25069;SDS011;13064;48.162;11.536;2023-05-10T03:49:24;1.73;;;0.40;;
25069;SDS011;13064;48.162;11.536;2023-05-10T03:51:52;1.13;;;0.43;;
25069;SDS011;13064;48.162;11.536;2023-05-10T03:54:19;0.50;;;0.50;;
25069;SDS011;13064;48.162;11.536;2023-05-10T03:56:47;0.73;;;0.32;;
25069;SDS011;13064;48.162;11.536;2023-05-10T03:59:16;0.90;;;0.63;;
25069;SDS011;13064;48.162;11.536;2023-05-10T04:01:43;1.67;;;0.50;;
25069;SDS011;13064;48.162;11.536;2023-05-10T04:04:11;0.55;;;0.55;;
25069;SDS011;13064;48.162;11.536;2023-05-10T04:06:38;1.23;;;0.40;;
25069;SDS011;13064;48.162;11.536;2023-05-10T04:09:06;1.27;;;0.38;;
25069;SDS011;13064;48.162;11.536;2023-05-10T04:11:35;0.70;;;0.50;;
25069;SDS011;13064;48.162;11.536;2023-05-10T04:14:03;0.95;;;0.28;;
25069;SDS011;13064;48.162;11.536;2023-05-10T04:16:30;0.50;;;0.50;;
25069;SDS011;13064;48.162;11.536;2023-05-10T04:18:58;0.70;;;0.60;;
25069;SDS011;13064;48.162;11.536;2023-05-10T04:21:26;0.32;;;0.32;;
25069;SDS011;13064;48.162;11.536;2023-05-10T04:23:53;0.88;;;0.60;;
25069;SDS011;13064;48.162;11.536;2023-05-10T04:26:21;0.52;;;0.50;;
25069;SDS011;13064;48.162;11.536;2023-05-10T04:28:48;1.83;;;0.50;;
25069;SDS011;13064;48.162;11.536;2023-05-10T04:31:16;0.50;;;0.40;;
25069;SDS011;13064;48.162;11.536;2023-05-10T04:33:44;1.23;;;0.40;;
25069;SDS011;13064;48.162;11.536;2023-05-10T04:36:11;1.33;;;0.50;;
25069;SDS011;13064;48.162;11.536;2023-05-10T04:38:39;3.50;;;0.45;;
25069;SDS011;13064;48.162;11.536;2023-05-10T04:41:07;1.38;;;0.50;;
25069;SDS011;13064;48.162;11.536;2023-05-10T04:43:35;0.47;;;0.40;;
25069;SDS011;13064;48.162;11.536;2023-05-10T04:46:03;1.33;;;0.57;;
25069;SDS011;13064;48.162;11.536;2023-05-10T04:48:31;1.38;;;0.55;;
25069;SDS011;13064;48.162;11.536;2023-05-10T04:50:58;0.40;;;0.40;;
25069;SDS011;13064;48.162;11.536;2023-05-10T04:53:26;0.68;;;0.60;;
25069;SDS011;13064;48.162;11.536;2023-05-10T04:55:54;3.05;;;0.50;;
25069;SDS011;13064;48.162;11.536;2023-05-10T04:58:21;2.15;;;0.50;;
25069;SDS011;13064;48.162;11.536;2023-05-10T05:00:49;1.83;;;0.70;;
25069;SDS011;13064;48.162;11.536;2023-05-10T05:03:16;0.80;;;0.50;;
25069;SDS011;13064;48.162;11.536;2023-05-10T05:05:44;1.35;;;0.50;;
25069;SDS011;13064;48.162;11.536;2023-05-10T05:08:12;1.52;;;0.43;;
25069;SDS011;13064;48.162;11.536;2023-05-10T05:10:39;0.32;;;0.30;;
25069;SDS011;13064;48.162;11.536;2023-05-10T05:13:07;0.30;;;0.30;;
25069;SDS011;13064;48.162;11.536;2023-05-10T05:15:34;1.10;;;0.80;;
25069;SDS011;13064;48.162;11.536;2023-05-10T05:18:02;0.77;;;0.57;;
25069;SDS011;13064;48.162;11.536;2023-05-10T05:20:31;0.57;;;0.30;;
25069;SDS011;13064;48.162;11.536;2023-05-10T05:23:00;3.35;;;0.38;;
25069;SDS011;13064;48.162;11.536;2023-05-10T05:25:27;0.30;;;0.22;;
25069;SDS011;13064;48.162;11.536;2023-05-10T05:27:55;2.95;;;0.50;;
25069;SDS011;13064;48.162;11.536;2023-05-10T05:30:22;1.30;;;0.60;;
25069;SDS011;13064;48.162;11.536;2023-05-10T05:32:50;0.38;;;0.30;;
25069;SDS011;13064;48.162;11.536;2023-05-10T05:35:17;0.75;;;0.50;;
25069;SDS011;13064;48.162;11.536;2023-05-10T05:37:45;0.60;;;0.57;;
25069;SDS011;13064;48.162;11.536;2023-05-10T05:40:13;1.90;;;0.70;;
25069;SDS011;13064;48.162;11.536;2023-05-10T05:42:40;2.83;;;0.60;;
25069;SDS011;13064;48.162;11.536;2023-05-10T05:45:08;0.90;;;0.52;;
25069;SDS011;13064;48.162;11.536;2023-05-10T05:47:39;0.80;;;0.70;;
25069;SDS011;13064;48.162;11.536;2023-05-10T05:50:07;1.80;;;0.57;;
25069;SDS011;13064;48.162;11.536;2023-05-10T05:52:34;1.65;;;0.70;;
25069;SDS011;13064;48.162;11.536;2023-05-10T05:55:02;3.90;;;0.40;;
25069;SDS011;13064;48.162;11.536;2023-05-10T05:57:30;0.82;;;0.60;;
25069;SDS011;13064;48.162;11.536;2023-05-10T05:59:58;0.93;;;0.40;;
25069;SDS011;13064;48.162;11.536;2023-05-10T06:02:26;0.90;;;0.82;;
25069;SDS011;13064;48.162;11.536;2023-05-10T06:04:53;0.30;;;0.30;;
25069;SDS011;13064;48.162;11.536;2023-05-10T06:07:21;1.98;;;0.50;;
25069;SDS011;13064;48.162;11.536;2023-05-10T06:09:48;1.70;;;0.50;;
25069;SDS011;13064;48.162;11.536;2023-05-10T06:12:16;0.95;;;0.50;;
25069;SDS011;13064;48.162;11.536;2023-05-10T06:14:44;0.52;;;0.52;;
25069;SDS011;13064;48.162;11.536;2023-05-10T06:17:11;1.27;;;0.57;;
25069;SDS011;13064;48.162;11.536;2023-05-10T06:19:39;1.17;;;0.70;;
25069;SDS011;13064;48.162;11.536;2023-05-10T06:22:06;1.80;;;0.60;;
25069;SDS011;13064;48.162;11.536;2023-05-10T06:24:34;0.63;;;0.55;;
25069;SDS011;13064;48.162;11.536;2023-05-10T06:27:01;0.40;;;0.40;;
25069;SDS011;13064;48.162;11.536;2023-05-10T06:29:30;0.73;;;0.60;;
25069;SDS011;13064;48.162;11.536;2023-05-10T06:31:58;0.90;;;0.75;;
25069;SDS011;13064;48.162;11.536;2023-05-10T06:34:26;1.10;;;0.70;;
25069;SDS011;13064;48.162;11.536;2023-05-10T06:36:53;1.60;;;0.60;;
25069;SDS011;13064;48.162;11.536;2023-05-10T06:39:21;1.38;;;0.80;;
25069;SDS011;13064;48.162;11.536;2023-05-10T06:41:48;2.38;;;0.70;;
25069;SDS011;13064;48.162;11.536;2023-05-10T06:44:18;1.75;;;0.70;;
25069;SDS011;13064;48.162;11.536;2023-05-10T06:46:45;0.98;;;0.70;;
25069;SDS011;13064;48.162;11.536;2023-05-10T06:49:13;0.70;;;0.70;;
25069;SDS011;13064;48.162;11.536;2023-05-10T06:51:40;1.30;;;0.75;;
25069;SDS011;13064;48.162;11.536;2023-05-10T06:54:08;1.73;;;0.80;;
25069;SDS011;13064;48.162;11.536;2023-05-10T06:56:36;2.58;;;0.63;;
25069;SDS011;13064;48.162;11.536;2023-05-10T06:59:03;3.83;;;0.80;;
25069;SDS011;13064;48.162;11.536;2023-05-10T07:01:31;1.75;;;0.60;;
25069;SDS011;13064;48.162;11.536;2023-05-10T07:03:58;4.18;;;0.65;;
25069;SDS011;13064;48.162;11.536;2023-05-10T07:06:26;2.55;;;0.80;;
25069;SDS011;13064;48.162;11.536;2023-05-10T07:09:00;1.98;;;0.90;;
25069;SDS011;13064;48.162;11.536;2023-05-10T07:11:27;2.90;;;0.80;;
25069;SDS011;13064;48.162;11.536;2023-05-10T07:13:55;2.05;;;0.90;;
25069;SDS011;13064;48.162;11.536;2023-05-10T07:16:23;1.33;;;0.95;;
25069;SDS011;13064;48.162;11.536;2023-05-10T07:18:50;4.22;;;1.10;;
25069;SDS011;13064;48.162;11.536;2023-05-10T07:21:19;0.75;;;0.70;;
25069;SDS011;13064;48.162;11.536;2023-05-10T07:23:47;2.63;;;0.90;;
25069;SDS011;13064;48.162;11.536;2023-05-10T07:26:15;3.97;;;0.80;;
25069;SDS011;13064;48.162;11.536;2023-05-10T07:28:42;2.72;;;1.13;;
25069;SDS011;13064;48.162;11.536;2023-05-10T07:31:10;2.13;;;0.80;;
25069;SDS011;13064;48.162;11.536;2023-05-10T07:33:38;2.15;;;0.77;;
25069;SDS011;13064;48.162;11.536;2023-05-10T07:36:05;2.10;;;0.80;;
25069;SDS011;13064;48.162;11.536;2023-05-10T07:38:33;1.52;;;0.70;;
25069;SDS011;13064;48.162;11.536;2023-05-10T07:41:00;1.70;;;0.68;;
25069;SDS011;13064;48.162;11.536;2023-05-10T07:43:29;3.53;;;0.70;;
25069;SDS011;13064;48.162;11.536;2023-05-10T07:45:57;2.15;;;0.70;;
25069;SDS011;13064;48.162;11.536;2023-05-10T07:48:26;1.25;;;0.80;;
25069;SDS011;13064;48.162;11.536;2023-05-10T07:50:53;1.70;;;0.63;;
25069;SDS011;13064;48.162;11.536;2023-05-10T07:53:21;2.45;;;0.85;;
25069;SDS011;13064;48.162;11.536;2023-05-10T07:55:52;0.77;;;0.65;;
25069;SDS011;13064;48.162;11.536;2023-05-10T07:58:21;0.90;;;0.80;;
25069;SDS011;13064;48.162;11.536;2023-05-10T08:00:49;0.75;;;0.55;;
25069;SDS011;13064;48.162;11.536;2023-05-10T08:03:16;1.10;;;0.95;;
25069;SDS011;13064;48.162;11.536;2023-05-10T08:05:44;1.13;;;0.75;;
25069;SDS011;13064;48.162;11.536;2023-05-10T08:08:12;1.98;;;0.90;;
25069;SDS011;13064;48.162;11.536;2023-05-10T08:10:39;3.47;;;0.80;;
25069;SDS011;13064;48.162;11.536;2023-05-10T08:13:07;2.42;;;0.60;;
25069;SDS011;13064;48.162;11.536;2023-05-10T08:15:34;1.80;;;0.60;;
25069;SDS011;13064;48.162;11.536;2023-05-10T08:18:02;2.50;;;0.98;;
25069;SDS011;13064;48.162;11.536;2023-05-10T08:20:30;1.45;;;0.80;;
25069;SDS011;13064;48.162;11.536;2023-05-10T08:22:58;3.28;;;0.77;;
25069;SDS011;13064;48.162;11.536;2023-05-10T08:25:26;2.85;;;0.80;;
25069;SDS011;13064;48.162;11.536;2023-05-10T08:27:53;1.35;;;0.60;;
25069;SDS011;13064;48.162;11.536;2023-05-10T08:30:21;1.40;;;0.60;;
25069;SDS011;13064;48.162;11.536;2023-05-10T08:32:48;0.90;;;0.60;;
25069;SDS011;13064;48.162;11.536;2023-05-10T08:35:16;1.70;;;0.70;;
25069;SDS011;13064;48.162;11.536;2023-05-10T08:37:44;0.82;;;0.60;;
25069;SDS011;13064;48.162;11.536;2023-05-10T08:40:12;1.15;;;0.60;;
25069;SDS011;13064;48.162;11.536;2023-05-10T08:42:40;3.90;;;0.60;;
25069;SDS011;13064;48.162;11.536;2023-05-10T08:45:08;0.50;;;0.50;;
25069;SDS011;13064;48.162;11.536;2023-05-10T08:47:36;1.67;;;0.70;;
25069;SDS011;13064;48.162;11.536;2023-05-10T08:50:05;3.10;;;0.90;;
25069;SDS011;13064;48.162;11.536;2023-05-10T08:52:33;0.60;;;0.60;;
25069;SDS011;13064;48.162;11.536;2023-05-10T08:55:06;2.92;;;0.70;;
25069;SDS011;13064;48.162;11.536;2023-05-10T08:57:35;1.27;;;0.70;;
25069;SDS011;13064;48.162;11.536;2023-05-10T09:00:03;2.45;;;0.80;;
25069;SDS011;13064;48.162;11.536;2023-05-10T09:02:30;1.50;;;0.60;;
25069;SDS011;13064;48.162;11.536;2023-05-10T09:04:58;1.63;;;0.65;;
25069;SDS011;13064;48.162;11.536;2023-05-10T09:07:26;0.93;;;0.63;;
25069;SDS011;13064;48.162;11.536;2023-05-10T09:09:54;5.78;;;0.60;;
25069;SDS011;13064;48.162;11.536;2023-05-10T09:12:22;1.48;;;0.40;;
25069;SDS011;13064;48.162;11.536;2023-05-10T09:14:50;1.15;;;0.65;;
25069;SDS011;13064;48.162;11.536;2023-05-10T09:17:19;0.88;;;0.50;;
25069;SDS011;13064;48.162;11.536;2023-05-10T09:19:48;0.52;;;0.50;;
25069;SDS011;13064;48.162;11.536;2023-05-10T09:22:16;3.70;;;0.55;;
25069;SDS011;13064;48.162;11.536;2023-05-10T09:24:43;1.38;;;0.98;;
25069;SDS011;13064;48.162;11.536;2023-05-10T09:27:11;0.73;;;0.50;;
25069;SDS011;13064;48.162;11.536;2023-05-10T09:29:39;0.60;;;0.45;;
25069;SDS011;13064;48.162;11.536;2023-05-10T09:32:07;1.95;;;0.35;;
25069;SDS011;13064;48.162;11.536;2023-05-10T09:34:34;0.95;;;0.38;;
25069;SDS011;13064;48.162;11.536;2023-05-10T09:37:06;0.32;;;0.32;;
25069;SDS011;13064;48.162;11.536;2023-05-10T09:39:35;2.05;;;0.60;;
25069;SDS011;13064;48.162;11.536;2023-05-10T09:42:04;2.35;;;0.50;;
25069;SDS011;13064;48.162;11.536;2023-05-10T09:44:32;1.27;;;0.65;;
25069;SDS011;13064;48.162;11.536;2023-05-10T09:47:00;1.25;;;0.55;;
25069;SDS011;13064;48.162;11.536;2023-05-10T09:49:28;0.55;;;0.55;;
25069;SDS011;13064;48.162;11.536;2023-05-10T09:52:14;0.52;;;0.47;;
25069;SDS011;13064;48.162;11.536;2023-05-10T09:54:44;0.43;;;0.40;;
25069;SDS011;13064;48.162;11.536;2023-05-10T09:57:19;1.65;;;0.40;;
25069;SDS011;13064;48.162;11.536;2023-05-10T09:59:48;0.68;;;0.50;;
25069;SDS011;13064;48.162;11.536;2023-05-10T10:02:17;1.33;;;0.60;;
25069;SDS011;13064;48.162;11.536;2023-05-10T10:04:44;0.50;;;0.50;;
25069;SDS011;13064;48.162;11.536;2023-05-10T10:07:12;3.63;;;0.73;;
25069;SDS011;13064;48.162;11.536;2023-05-10T10:09:39;1.75;;;0.50;;
25069;SDS011;13064;48.162;11.536;2023-05-10T10:12:07;0.68;;;0.65;;
25069;SDS011;13064;48.162;11.536;2023-05-10T10:14:35;3.22;;;0.80;;
25069;SDS011;13064;48.162;11.536;2023-05-10T10:17:02;0.50;;;0.50;;
25069;SDS011;13064;48.162;11.536;2023-05-10T10:19:34;0.40;;;0.40;;
25069;SDS011;13064;48.162;11.536;2023-05-10T10:22:03;1.38;;;0.57;;
25069;SDS011;13064;48.162;11.536;2023-05-10T10:24:32;1.50;;;0.40;;
25069;SDS011;13064;48.162;11.536;2023-05-10T10:27:11;1.30;;;0.50;;
25069;SDS011;13064;48.162;11.536;2023-05-10T10:34:53;1.10;;;0.70;;
25069;SDS011;13064;48.162;11.536;2023-05-10T10:37:22;1.67;;;0.70;;
25069;SDS011;13064;48.162;11.536;2023-05-10T10:39:50;2.13;;;0.50;;
25069;SDS011;13064;48.162;11.536;2023-05-10T10:45:13;2.60;;;0.60;;
25069;SDS011;13064;48.162;11.536;2023-05-10T10:47:41;1.08;;;0.60;;
25069;SDS011;13064;48.162;11.536;2023-05-10T10:50:10;2.03;;;0.57;;
25069;SDS011;13064;48.162;11.536;2023-05-10T10:52:42;2.25;;;0.85;;
25069;SDS011;13064;48.162;11.536;2023-05-10T10:55:14;3.10;;;0.93;;
25069;SDS011;13064;48.162;11.536;2023-05-10T10:57:47;2.28;;;0.65;;
25069;SDS011;13064;48.162;11.536;2023-05-10T11:02:46;1.02;;;0.80;;
25069;SDS011;13064;48.162;11.536;2023-05-10T11:07:56;1.30;;;0.70;;
25069;SDS011;13064;48.162;11.536;2023-05-10T11:10:24;1.60;;;0.70;;
25069;SDS011;13064;48.162;11.536;2023-05-10T11:15:20;1.38;;;0.68;;
25069;SDS011;13064;48.162;11.536;2023-05-10T11:17:55;0.70;;;0.60;;
25069;SDS011;13064;48.162;11.536;2023-05-10T11:20:23;3.30;;;0.65;;
25069;SDS011;13064;48.162;11.536;2023-05-10T11:23:10;1.25;;;0.50;;
25069;SDS011;13064;48.162;11.536;2023-05-10T11:25:42;2.95;;;0.63;;
25069;SDS011;13064;48.162;11.536;2023-05-10T11:28:13;1.27;;;0.60;;
25069;SDS011;13064;48.162;11.536;2023-05-10T11:30:43;1.85;;;0.60;;
25069;SDS011;13064;48.162;11.536;2023-05-10T11:33:14;2.78;;;0.57;;
25069;SDS011;13064;48.162;11.536;2023-05-10T11:35:43;1.90;;;0.85;;
25069;SDS011;13064;48.162;11.536;2023-05-10T11:38:11;3.08;;;0.90;;
25069;SDS011;13064;48.162;11.536;2023-05-10T11:40:39;2.28;;;0.90;;
25069;SDS011;13064;48.162;11.536;2023-05-10T11:43:08;1.98;;;1.15;;
25069;SDS011;13064;48.162;11.536;2023-05-10T11:45:36;3.88;;;1.10;;
25069;SDS011;13064;48.162;11.536;2023-05-10T11:48:04;1.67;;;0.90;;
25069;SDS011;13064;48.162;11.536;2023-05-10T11:50:32;2.75;;;1.38;;
25069;SDS011;13064;48.162;11.536;2023-05-10T11:52:59;2.15;;;0.95;;
25069;SDS011;13064;48.162;11.536;2023-05-10T11:55:27;2.60;;;0.98;;
25069;SDS011;13064;48.162;11.536;2023-05-10T11:57:59;1.85;;;0.80;;
25069;SDS011;13064;48.162;11.536;2023-05-10T12:00:28;1.13;;;0.60;;
25069;SDS011;13064;48.162;11.536;2023-05-10T12:02:56;2.40;;;0.80;;
25069;SDS011;13064;48.162;11.536;2023-05-10T12:05:23;3.28;;;0.77;;
25069;SDS011;13064;48.162;11.536;2023-05-10T12:07:51;0.90;;;0.70;;
25069;SDS011;13064;48.162;11.536;2023-05-10T12:10:24;1.15;;;0.70;;
25069;SDS011;13064;48.162;11.536;2023-05-10T12:12:53;2.25;;;1.08;;
25069;SDS011;13064;48.162;11.536;2023-05-10T12:15:21;3.10;;;0.73;;
25069;SDS011;13064;48.162;11.536;2023-05-10T12:17:49;1.13;;;0.90;;
25069;SDS011;13064;48.162;11.536;2023-05-10T12:20:19;2.83;;;1.20;;
25069;SDS011;13064;48.162;11.536;2023-05-10T12:22:49;2.97;;;1.10;;
25069;SDS011;13064;48.162;11.536;2023-05-10T12:25:17;2.67;;;1.00;;
25069;SDS011;13064;48.162;11.536;2023-05-10T12:27:51;2.78;;;1.00;;
25069;SDS011;13064;48.162;11.536;2023-05-10T12:30:22;4.53;;;0.95;;
25069;SDS011;13064;48.162;11.536;2023-05-10T12:32:51;1.30;;;0.88;;
25069;SDS011;13064;48.162;11.536;2023-05-10T12:35:19;2.20;;;0.90;;
25069;SDS011;13064;48.162;11.536;2023-05-10T12:37:50;1.83;;;0.90;;
25069;SDS011;13064;48.162;11.536;2023-05-10T12:40:18;3.40;;;1.20;;
25069;SDS011;13064;48.162;11.536;2023-05-10T12:42:45;2.25;;;1.00;;
25069;SDS011;13064;48.162;11.536;2023-05-10T12:45:17;1.38;;;0.90;;
25069;SDS011;13064;48.162;11.536;2023-05-10T12:47:44;4.20;;;1.35;;
25069;SDS011;13064;48.162;11.536;2023-05-10T12:50:12;2.67;;;1.20;;
25069;SDS011;13064;48.162;11.536;2023-05-10T12:52:40;1.25;;;1.00;;
25069;SDS011;13064;48.162;11.536;2023-05-10T12:55:07;3.47;;;1.00;;
25069;SDS011;13064;48.162;11.536;2023-05-10T12:57:35;4.32;;;1.30;;
25069;SDS011;13064;48.162;11.536;2023-05-10T13:00:03;1.75;;;1.20;;
25069;SDS011;13064;48.162;11.536;2023-05-10T13:02:31;2.05;;;1.00;;
25069;SDS011;13064;48.162;11.536;2023-05-10T13:04:59;1.25;;;1.15;;
25069;SDS011;13064;48.162;11.536;2023-05-10T13:07:27;1.25;;;0.93;;
25069;SDS011;13064;48.162;11.536;2023-05-10T13:09:55;1.88;;;1.02;;
25069;SDS011;13064;48.162;11.536;2023-05-10T13:12:22;1.23;;;0.82;;
25069;SDS011;13064;48.162;11.536;2023-05-10T13:14:50;1.38;;;0.57;;
25069;SDS011;13064;48.162;11.536;2023-05-10T13:17:17;2.20;;;0.77;;
25069;SDS011;13064;48.162;11.536;2023-05-10T13:19:45;1.75;;;0.93;;
25069;SDS011;13064;48.162;11.536;2023-05-10T13:22:12;2.25;;;0.93;;
25069;SDS011;13064;48.162;11.536;2023-05-10T13:24:44;2.20;;;0.70;;
25069;SDS011;13064;48.162;11.536;2023-05-10T13:27:12;2.65;;;0.85;;
25069;SDS011;13064;48.162;11.536;2023-05-10T13:29:39;1.13;;;1.02;;
25069;SDS011;13064;48.162;11.536;2023-05-10T13:32:10;1.40;;;0.90;;
25069;SDS011;13064;48.162;11.536;2023-05-10T13:34:37;3.38;;;1.20;;
25069;SDS011;13064;48.162;11.536;2023-05-10T13:37:05;2.00;;;1.08;;
25069;SDS011;13064;48.162;11.536;2023-05-10T13:39:33;3.63;;;1.02;;
25069;SDS011;13064;48.162;11.536;2023-05-10T13:42:00;3.30;;;1.33;;
25069;SDS011;13064;48.162;11.536;2023-05-10T13:44:29;3.53;;;1.10;;
25069;SDS011;13064;48.162;11.536;2023-05-10T13:46:56;2.58;;;1.13;;
25069;SDS011;13064;48.162;11.536;2023-05-10T13:49:24;1.38;;;1.00;;
25069;SDS011;13064;48.162;11.536;2023-05-10T13:51:52;2.47;;;1.10;;
25069;SDS011;13064;48.162;11.536;2023-05-10T13:54:19;1.30;;;0.90;;
25069;SDS011;13064;48.162;11.536;2023-05-10T13:56:48;1.30;;;1.20;;
25069;SDS011;13064;48.162;11.536;2023-05-10T13:59:16;3.03;;;1.30;;
25069;SDS011;13064;48.162;11.536;2023-05-10T14:01:43;1.98;;;1.30;;
25069;SDS011;13064;48.162;11.536;2023-05-10T14:04:11;3.00;;;1.10;;
25069;SDS011;13064;48.162;11.536;2023-05-10T14:06:38;5.30;;;1.35;;
25069;SDS011;13064;48.162;11.536;2023-05-10T14:09:06;2.00;;;1.15;;
25069;SDS011;13064;48.162;11.536;2023-05-10T14:11:34;1.50;;;1.00;;
25069;SDS011;13064;48.162;11.536;2023-05-10T14:14:01;1.98;;;1.23;;
25069;SDS011;13064;48.162;11.536;2023-05-10T14:16:29;2.63;;;0.93;;
25069;SDS011;13064;48.162;11.536;2023-05-10T14:18:56;1.67;;;0.88;;
25069;SDS011;13064;48.162;11.536;2023-05-10T14:21:24;0.95;;;0.80;;
25069;SDS011;13064;48.162;11.536;2023-05-10T14:23:52;1.20;;;1.10;;
25069;SDS011;13064;48.162;11.536;2023-05-10T14:26:20;2.05;;;1.10;;
25069;SDS011;13064;48.162;11.536;2023-05-10T14:28:48;2.13;;;0.90;;
25069;SDS011;13064;48.162;11.536;2023-05-10T14:31:15;2.08;;;0.80;;
25069;SDS011;13064;48.162;11.536;2023-05-10T14:33:48;2.67;;;0.82;;
25069;SDS011;13064;48.162;11.536;2023-05-10T14:36:16;2.08;;;0.98;;
25069;SDS011;13064;48.162;11.536;2023-05-10T14:38:44;1.73;;;0.90;;
25069;SDS011;13064;48.162;11.536;2023-05-10T14:41:12;0.85;;;0.77;;
25069;SDS011;13064;48.162;11.536;2023-05-10T14:43:41;1.48;;;0.75;;
25069;SDS011;13064;48.162;11.536;2023-05-10T14:46:09;1.10;;;0.88;;
25069;SDS011;13064;48.162;11.536;2023-05-10T14:48:36;1.50;;;1.00;;
25069;SDS011;13064;48.162;11.536;2023-05-10T14:51:04;0.85;;;0.80;;
25069;SDS011;13064;48.162;11.536;2023-05-10T14:53:31;2.30;;;0.90;;
25069;SDS011;13064;48.162;11.536;2023-05-10T14:55:59;1.02;;;0.70;;
25069;SDS011;13064;48.162;11.536;2023-05-10T14:58:28;2.05;;;0.80;;
25069;SDS011;13064;48.162;11.536;2023-05-10T15:00:59;1.13;;;0.75;;
25069;SDS011;13064;48.162;11.536;2023-05-10T15:03:27;1.83;;;0.77;;
25069;SDS011;13064;48.162;11.536;2023-05-10T15:05:56;2.90;;;0.70;;
25069;SDS011;13064;48.162;11.536;2023-05-10T15:08:24;2.03;;;0.90;;
25069;SDS011;13064;48.162;11.536;2023-05-10T15:10:52;1.40;;;0.80;;